sensor_id;sensor_type;location;lat;lon;timestamp;P1;P2;P0
75960;PMS7003;64644;48.914;2.254;2023-10-13T00:00:37;9.00;6.00;4.25
75960;PMS7003;64644;48.914;2.254;2023-10-13T00:03:05;5.00;5.00;4.00
75960;PMS7003;64644;48.914;2.254;2023-10-13T00:05:32;8.25;8.25;5.00
75960;PMS7003;64644;48.914;2.254;2023-10-13T00:08:01;7.50;7.50;5.00
75960;PMS7003;64644;48.914;2.254;2023-10-13T00:10:28;6.75;6.00;4.25
75960;PMS7003;64644;48.914;2.254;2023-10-13T00:12:58;8.00;7.00;5.50
75960;PMS7003;64644;48.914;2.254;2023-10-13T00:15:42;9.00;6.00;4.00
75960;PMS7003;64644;48.914;2.254;2023-10-13T00:18:16;8.00;7.00;5.00
75960;PMS7003;64644;48.914;2.254;2023-10-13T00:20:44;7.25;6.00;4.00
75960;PMS7003;64644;48.914;2.254;2023-10-13T00:23:14;2.50;2.00;1.50
75960;PMS7003;64644;48.914;2.254;2023-10-13T00:25:40;6.00;5.00;4.00
75960;PMS7003;64644;48.914;2.254;2023-10-13T00:28:14;5.25;5.25;4.00
75960;PMS7003;64644;48.914;2.254;2023-10-13T00:30:47;7.00;5.25;4.00
75960;PMS7003;64644;48.914;2.254;2023-10-13T00:33:17;7.50;6.00;4.00
75960;PMS7003;64644;48.914;2.254;2023-10-13T00:35:45;6.75;6.75;4.75
75960;PMS7003;64644;48.914;2.254;2023-10-13T00:38:12;10.75;8.25;5.50
75960;PMS7003;64644;48.914;2.254;2023-10-13T00:40:40;8.50;8.00;5.00
75960;PMS7003;64644;48.914;2.254;2023-10-13T00:43:07;4.25;4.25;4.00
75960;PMS7003;64644;48.914;2.254;2023-10-13T00:48:33;5.00;5.00;4.00
75960;PMS7003;64644;48.914;2.254;2023-10-13T00:51:16;8.50;6.00;4.00
75960;PMS7003;64644;48.914;2.254;2023-10-13T00:54:03;8.75;7.50;5.00
75960;PMS7003;64644;48.914;2.254;2023-10-13T00:56:32;6.00;5.25;4.00
75960;PMS7003;64644;48.914;2.254;2023-10-13T00:58:59;8.00;7.00;5.25
75960;PMS7003;64644;48.914;2.254;2023-10-13T01:01:27;6.50;6.00;3.00
75960;PMS7003;64644;48.914;2.254;2023-10-13T01:03:54;7.50;6.50;5.00
75960;PMS7003;64644;48.914;2.254;2023-10-13T01:06:24;7.00;7.00;5.50
75960;PMS7003;64644;48.914;2.254;2023-10-13T01:08:56;6.75;5.00;4.50
75960;PMS7003;64644;48.914;2.254;2023-10-13T01:11:35;10.00;10.00;6.00
75960;PMS7003;64644;48.914;2.254;2023-10-13T01:14:01;6.50;6.50;4.50
75960;PMS7003;64644;48.914;2.254;2023-10-13T01:16:29;7.00;5.50;3.75
75960;PMS7003;64644;48.914;2.254;2023-10-13T01:18:55;7.25;7.25;5.00
75960;PMS7003;64644;48.914;2.254;2023-10-13T01:21:24;7.50;6.25;4.50
75960;PMS7003;64644;48.914;2.254;2023-10-13T01:23:52;6.25;5.50;4.00
75960;PMS7003;64644;48.914;2.254;2023-10-13T01:26:18;10.00;8.50;5.00
75960;PMS7003;64644;48.914;2.254;2023-10-13T01:28:52;7.00;6.00;5.00
75960;PMS7003;64644;48.914;2.254;2023-10-13T01:31:22;7.50;7.00;5.00
75960;PMS7003;64644;48.914;2.254;2023-10-13T01:33:55;8.00;8.00;6.00
75960;PMS7003;64644;48.914;2.254;2023-10-13T01:36:23;7.50;6.25;4.00
75960;PMS7003;64644;48.914;2.254;2023-10-13T01:38:50;10.00;8.75;5.00
75960;PMS7003;64644;48.914;2.254;2023-10-13T01:41:16;6.00;4.75;2.50
75960;PMS7003;64644;48.914;2.254;2023-10-13T01:43:42;8.75;8.75;6.25
75960;PMS7003;64644;48.914;2.254;2023-10-13T01:46:08;10.00;9.00;5.50
75960;PMS7003;64644;48.914;2.254;2023-10-13T01:48:34;7.75;7.00;4.25
75960;PMS7003;64644;48.914;2.254;2023-10-13T01:51:04;7.75;7.75;5.25
75960;PMS7003;64644;48.914;2.254;2023-10-13T01:53:31;9.75;7.75;5.25
75960;PMS7003;64644;48.914;2.254;2023-10-13T01:55:56;10.25;7.75;5.00
75960;PMS7003;64644;48.914;2.254;2023-10-13T01:58:22;9.75;8.75;5.00
75960;PMS7003;64644;48.914;2.254;2023-10-13T02:00:51;8.00;8.00;6.75
75960;PMS7003;64644;48.914;2.254;2023-10-13T02:03:16;8.00;8.00;6.25
75960;PMS7003;64644;48.914;2.254;2023-10-13T02:08:18;7.75;7.00;5.00
75960;PMS7003;64644;48.914;2.254;2023-10-13T02:10:47;13.00;9.00;6.00
75960;PMS7003;64644;48.914;2.254;2023-10-13T02:13:13;8.00;8.00;6.25
75960;PMS7003;64644;48.914;2.254;2023-10-13T02:15:41;7.75;7.50;5.00
75960;PMS7003;64644;48.914;2.254;2023-10-13T02:18:12;6.25;6.00;4.50
75960;PMS7003;64644;48.914;2.254;2023-10-13T02:21:01;7.25;6.25;4.25
75960;PMS7003;64644;48.914;2.254;2023-10-13T02:23:29;7.25;7.25;6.25
75960;PMS7003;64644;48.914;2.254;2023-10-13T02:25:55;10.75;9.25;5.25
75960;PMS7003;64644;48.914;2.254;2023-10-13T02:28:36;11.50;10.25;6.00
75960;PMS7003;64644;48.914;2.254;2023-10-13T02:31:02;10.00;8.00;5.50
75960;PMS7003;64644;48.914;2.254;2023-10-13T02:33:29;10.75;8.75;5.75
75960;PMS7003;64644;48.914;2.254;2023-10-13T02:35:58;11.25;11.00;6.50
75960;PMS7003;64644;48.914;2.254;2023-10-13T02:38:31;9.00;8.50;7.00
75960;PMS7003;64644;48.914;2.254;2023-10-13T02:41:11;9.75;8.25;5.75
75960;PMS7003;64644;48.914;2.254;2023-10-13T02:43:53;9.00;8.75;6.00
75960;PMS7003;64644;48.914;2.254;2023-10-13T02:46:19;9.00;8.50;5.50
75960;PMS7003;64644;48.914;2.254;2023-10-13T02:48:48;9.00;8.25;6.00
75960;PMS7003;64644;48.914;2.254;2023-10-13T02:51:22;10.00;9.00;6.75
75960;PMS7003;64644;48.914;2.254;2023-10-13T02:53:56;11.50;9.00;6.00
75960;PMS7003;64644;48.914;2.254;2023-10-13T02:56:27;9.00;6.75;4.50
75960;PMS7003;64644;48.914;2.254;2023-10-13T02:58:53;6.75;6.75;4.00
75960;PMS7003;64644;48.914;2.254;2023-10-13T03:01:21;8.50;8.50;5.00
75960;PMS7003;64644;48.914;2.254;2023-10-13T03:03:52;6.00;6.00;4.00
75960;PMS7003;64644;48.914;2.254;2023-10-13T03:06:23;9.75;9.75;6.25
75960;PMS7003;64644;48.914;2.254;2023-10-13T03:08:57;10.50;8.25;6.25
75960;PMS7003;64644;48.914;2.254;2023-10-13T03:11:25;8.50;8.00;6.00
75960;PMS7003;64644;48.914;2.254;2023-10-13T03:13:50;7.00;7.00;6.00
75960;PMS7003;64644;48.914;2.254;2023-10-13T03:16:17;9.50;9.50;7.00
75960;PMS7003;64644;48.914;2.254;2023-10-13T03:18:45;9.75;8.50;6.00
75960;PMS7003;64644;48.914;2.254;2023-10-13T03:21:18;11.00;9.00;6.75
75960;PMS7003;64644;48.914;2.254;2023-10-13T03:23:53;11.00;9.00;6.00
75960;PMS7003;64644;48.914;2.254;2023-10-13T03:26:29;10.75;10.25;6.50
75960;PMS7003;64644;48.914;2.254;2023-10-13T03:28:54;10.25;9.25;5.50
75960;PMS7003;64644;48.914;2.254;2023-10-13T03:31:22;9.75;8.25;6.00
75960;PMS7003;64644;48.914;2.254;2023-10-13T03:33:53;9.75;9.00;6.00
75960;PMS7003;64644;48.914;2.254;2023-10-13T03:36:24;10.50;9.25;6.50
75960;PMS7003;64644;48.914;2.254;2023-10-13T03:39:08;10.25;8.75;6.00
75960;PMS7003;64644;48.914;2.254;2023-10-13T03:41:36;10.50;9.75;7.00
75960;PMS7003;64644;48.914;2.254;2023-10-13T03:44:04;8.75;7.75;6.00
75960;PMS7003;64644;48.914;2.254;2023-10-13T03:46:37;9.00;8.50;5.50
75960;PMS7003;64644;48.914;2.254;2023-10-13T03:49:05;11.50;9.50;6.50
75960;PMS7003;64644;48.914;2.254;2023-10-13T03:51:31;8.00;7.50;6.25
75960;PMS7003;64644;48.914;2.254;2023-10-13T03:53:56;9.75;8.00;7.00
75960;PMS7003;64644;48.914;2.254;2023-10-13T03:56:23;12.25;11.00;6.75
75960;PMS7003;64644;48.914;2.254;2023-10-13T03:58:55;10.25;10.00;7.00
75960;PMS7003;64644;48.914;2.254;2023-10-13T04:01:31;8.75;8.25;6.00
75960;PMS7003;64644;48.914;2.254;2023-10-13T04:04:00;11.25;9.50;6.50
75960;PMS7003;64644;48.914;2.254;2023-10-13T04:06:33;12.50;9.75;7.00
75960;PMS7003;64644;48.914;2.254;2023-10-13T04:11:54;12.75;9.50;7.00
75960;PMS7003;64644;48.914;2.254;2023-10-13T04:14:29;14.75;10.00;8.00
75960;PMS7003;64644;48.914;2.254;2023-10-13T04:17:19;10.75;10.00;7.25
75960;PMS7003;64644;48.914;2.254;2023-10-13T04:19:50;11.00;11.00;7.00
75960;PMS7003;64644;48.914;2.254;2023-10-13T04:22:34;11.25;11.00;7.00
75960;PMS7003;64644;48.914;2.254;2023-10-13T04:25:13;10.25;10.00;7.00
75960;PMS7003;64644;48.914;2.254;2023-10-13T04:27:57;10.75;10.75;7.00
75960;PMS7003;64644;48.914;2.254;2023-10-13T04:30:38;13.50;11.75;6.50
75960;PMS7003;64644;48.914;2.254;2023-10-13T04:33:22;10.50;9.75;7.00
75960;PMS7003;64644;48.914;2.254;2023-10-13T04:36:13;11.75;11.75;8.00
75960;PMS7003;64644;48.914;2.254;2023-10-13T04:38:44;12.25;11.25;8.00
75960;PMS7003;64644;48.914;2.254;2023-10-13T04:41:40;9.75;9.25;7.75
75960;PMS7003;64644;48.914;2.254;2023-10-13T04:44:17;11.50;10.00;6.00
75960;PMS7003;64644;48.914;2.254;2023-10-13T04:46:55;12.25;10.50;6.25
75960;PMS7003;64644;48.914;2.254;2023-10-13T04:49:28;10.50;9.00;6.00
75960;PMS7003;64644;48.914;2.254;2023-10-13T04:52:21;13.75;12.25;7.00
75960;PMS7003;64644;48.914;2.254;2023-10-13T04:55:05;12.00;9.00;7.00
75960;PMS7003;64644;48.914;2.254;2023-10-13T04:58:03;13.75;11.00;7.00
75960;PMS7003;64644;48.914;2.254;2023-10-13T05:01:01;9.00;7.50;6.00
75960;PMS7003;64644;48.914;2.254;2023-10-13T05:03:46;10.50;10.25;7.00
75960;PMS7003;64644;48.914;2.254;2023-10-13T05:06:31;11.25;8.50;7.00
75960;PMS7003;64644;48.914;2.254;2023-10-13T05:09:09;9.75;9.75;8.00
75960;PMS7003;64644;48.914;2.254;2023-10-13T05:11:54;14.50;13.50;7.25
75960;PMS7003;64644;48.914;2.254;2023-10-13T05:14:38;12.25;10.25;8.25
75960;PMS7003;64644;48.914;2.254;2023-10-13T05:17:22;10.25;8.50;5.50
75960;PMS7003;64644;48.914;2.254;2023-10-13T05:20:07;9.25;9.25;7.00
75960;PMS7003;64644;48.914;2.254;2023-10-13T05:22:51;14.00;11.75;8.25
75960;PMS7003;64644;48.914;2.254;2023-10-13T05:25:35;12.25;11.50;7.25
75960;PMS7003;64644;48.914;2.254;2023-10-13T05:28:20;13.75;13.75;10.00
75960;PMS7003;64644;48.914;2.254;2023-10-13T05:31:04;16.25;12.50;8.00
75960;PMS7003;64644;48.914;2.254;2023-10-13T05:33:47;12.50;12.00;8.25
75960;PMS7003;64644;48.914;2.254;2023-10-13T05:36:32;11.50;11.00;7.00
75960;PMS7003;64644;48.914;2.254;2023-10-13T05:39:16;13.75;13.75;9.00
75960;PMS7003;64644;48.914;2.254;2023-10-13T05:42:00;13.25;13.00;8.25
75960;PMS7003;64644;48.914;2.254;2023-10-13T05:44:55;10.50;9.25;7.00
75960;PMS7003;64644;48.914;2.254;2023-10-13T05:47:39;13.25;11.00;8.00
75960;PMS7003;64644;48.914;2.254;2023-10-13T05:50:07;14.25;14.25;9.25
75960;PMS7003;64644;48.914;2.254;2023-10-13T05:52:48;11.25;11.00;8.75
75960;PMS7003;64644;48.914;2.254;2023-10-13T05:55:29;13.75;11.75;8.00
75960;PMS7003;64644;48.914;2.254;2023-10-13T05:58:14;16.75;12.50;9.25
75960;PMS7003;64644;48.914;2.254;2023-10-13T06:00:59;12.25;10.00;7.50
75960;PMS7003;64644;48.914;2.254;2023-10-13T06:03:43;13.00;12.50;9.00
75960;PMS7003;64644;48.914;2.254;2023-10-13T06:06:27;12.75;11.50;7.75
75960;PMS7003;64644;48.914;2.254;2023-10-13T06:09:11;12.25;11.25;8.50
75960;PMS7003;64644;48.914;2.254;2023-10-13T06:11:55;12.50;10.75;9.00
75960;PMS7003;64644;48.914;2.254;2023-10-13T06:14:39;11.50;11.50;8.25
75960;PMS7003;64644;48.914;2.254;2023-10-13T06:17:23;16.00;14.50;9.75
75960;PMS7003;64644;48.914;2.254;2023-10-13T06:20:07;15.75;13.50;9.25
75960;PMS7003;64644;48.914;2.254;2023-10-13T06:22:51;16.75;15.25;10.00
75960;PMS7003;64644;48.914;2.254;2023-10-13T06:25:35;16.50;13.50;9.75
75960;PMS7003;64644;48.914;2.254;2023-10-13T06:28:19;15.00;15.00;9.75
75960;PMS7003;64644;48.914;2.254;2023-10-13T06:31:04;16.00;14.25;10.50
75960;PMS7003;64644;48.914;2.254;2023-10-13T06:33:33;16.00;13.75;10.00
75960;PMS7003;64644;48.914;2.254;2023-10-13T06:35:59;13.00;11.50;8.50
75960;PMS7003;64644;48.914;2.254;2023-10-13T06:38:26;13.75;13.25;9.75
75960;PMS7003;64644;48.914;2.254;2023-10-13T06:40:56;16.50;14.25;9.50
75960;PMS7003;64644;48.914;2.254;2023-10-13T06:43:22;14.00;14.00;8.25
75960;PMS7003;64644;48.914;2.254;2023-10-13T06:45:49;13.75;13.50;10.00
75960;PMS7003;64644;48.914;2.254;2023-10-13T06:48:27;13.50;13.50;10.00
75960;PMS7003;64644;48.914;2.254;2023-10-13T06:50:52;17.50;14.25;9.00
75960;PMS7003;64644;48.914;2.254;2023-10-13T06:53:21;14.75;13.50;8.75
75960;PMS7003;64644;48.914;2.254;2023-10-13T06:55:46;19.00;14.25;10.25
75960;PMS7003;64644;48.914;2.254;2023-10-13T06:58:13;13.75;13.75;10.00
75960;PMS7003;64644;48.914;2.254;2023-10-13T07:00:42;12.50;12.50;8.75
75960;PMS7003;64644;48.914;2.254;2023-10-13T07:03:17;15.50;14.75;8.50
75960;PMS7003;64644;48.914;2.254;2023-10-13T07:05:44;17.00;16.00;11.25
75960;PMS7003;64644;48.914;2.254;2023-10-13T07:08:12;16.25;14.50;8.50
75960;PMS7003;64644;48.914;2.254;2023-10-13T07:10:51;16.50;15.00;11.00
75960;PMS7003;64644;48.914;2.254;2023-10-13T07:13:26;14.75;14.25;8.50
75960;PMS7003;64644;48.914;2.254;2023-10-13T07:15:53;18.50;14.00;8.75
75960;PMS7003;64644;48.914;2.254;2023-10-13T07:18:24;14.25;14.25;10.25
75960;PMS7003;64644;48.914;2.254;2023-10-13T07:20:50;14.00;12.50;8.25
75960;PMS7003;64644;48.914;2.254;2023-10-13T07:23:15;13.75;12.50;8.75
75960;PMS7003;64644;48.914;2.254;2023-10-13T07:25:51;11.25;11.25;8.00
75960;PMS7003;64644;48.914;2.254;2023-10-13T07:28:27;11.25;11.25;8.75
75960;PMS7003;64644;48.914;2.254;2023-10-13T07:30:53;18.25;18.00;11.00
75960;PMS7003;64644;48.914;2.254;2023-10-13T07:33:19;12.00;11.00;8.75
75960;PMS7003;64644;48.914;2.254;2023-10-13T07:35:45;14.00;14.00;9.00
75960;PMS7003;64644;48.914;2.254;2023-10-13T07:38:17;18.50;15.75;9.00
75960;PMS7003;64644;48.914;2.254;2023-10-13T07:40:43;14.50;13.75;9.00
75960;PMS7003;64644;48.914;2.254;2023-10-13T07:43:18;9.75;9.25;7.50
75960;PMS7003;64644;48.914;2.254;2023-10-13T07:45:47;14.00;14.00;9.25
75960;PMS7003;64644;48.914;2.254;2023-10-13T07:48:17;15.75;13.50;9.00
75960;PMS7003;64644;48.914;2.254;2023-10-13T07:50:58;14.75;13.50;10.75
75960;PMS7003;64644;48.914;2.254;2023-10-13T07:53:28;12.00;12.00;9.25
75960;PMS7003;64644;48.914;2.254;2023-10-13T07:55:59;13.25;13.25;10.00
75960;PMS7003;64644;48.914;2.254;2023-10-13T07:58:30;12.75;12.75;10.00
75960;PMS7003;64644;48.914;2.254;2023-10-13T08:00:59;15.75;14.25;10.00
75960;PMS7003;64644;48.914;2.254;2023-10-13T08:03:41;13.75;13.75;10.00
75960;PMS7003;64644;48.914;2.254;2023-10-13T08:06:10;20.00;16.00;10.75
75960;PMS7003;64644;48.914;2.254;2023-10-13T08:08:37;15.00;15.00;10.25
75960;PMS7003;64644;48.914;2.254;2023-10-13T08:11:09;14.00;14.00;9.00
75960;PMS7003;64644;48.914;2.254;2023-10-13T08:13:48;14.00;13.50;9.00
75960;PMS7003;64644;48.914;2.254;2023-10-13T08:16:18;17.00;14.75;10.00
75960;PMS7003;64644;48.914;2.254;2023-10-13T08:18:51;12.75;12.25;10.00
75960;PMS7003;64644;48.914;2.254;2023-10-13T08:21:17;15.50;12.75;9.75
75960;PMS7003;64644;48.914;2.254;2023-10-13T08:23:48;12.25;12.00;10.00
75960;PMS7003;64644;48.914;2.254;2023-10-13T08:26:24;12.75;11.75;9.00
75960;PMS7003;64644;48.914;2.254;2023-10-13T08:29:09;13.00;11.25;8.25
75960;PMS7003;64644;48.914;2.254;2023-10-13T08:31:44;12.00;12.00;8.00
75960;PMS7003;64644;48.914;2.254;2023-10-13T08:34:51;14.00;14.00;9.25
75960;PMS7003;64644;48.914;2.254;2023-10-13T08:37:19;13.75;12.75;9.00
75960;PMS7003;64644;48.914;2.254;2023-10-13T08:39:49;14.50;13.00;10.50
75960;PMS7003;64644;48.914;2.254;2023-10-13T08:45:18;12.75;12.00;9.00
75960;PMS7003;64644;48.914;2.254;2023-10-13T08:47:49;13.50;12.00;9.00
75960;PMS7003;64644;48.914;2.254;2023-10-13T08:50:50;13.75;12.50;9.50
75960;PMS7003;64644;48.914;2.254;2023-10-13T08:53:17;13.25;11.00;8.75
75960;PMS7003;64644;48.914;2.254;2023-10-13T08:58:32;14.25;12.25;8.75
75960;PMS7003;64644;48.914;2.254;2023-10-13T09:04:08;13.75;13.75;8.25
75960;PMS7003;64644;48.914;2.254;2023-10-13T09:06:44;12.00;12.00;8.00
75960;PMS7003;64644;48.914;2.254;2023-10-13T09:09:29;12.00;9.75;8.00
75960;PMS7003;64644;48.914;2.254;2023-10-13T09:12:11;11.75;11.75;8.00
75960;PMS7003;64644;48.914;2.254;2023-10-13T09:14:54;11.00;11.00;8.50
75960;PMS7003;64644;48.914;2.254;2023-10-13T09:17:27;15.00;13.75;9.25
75960;PMS7003;64644;48.914;2.254;2023-10-13T09:20:01;10.00;10.00;8.00
75960;PMS7003;64644;48.914;2.254;2023-10-13T09:22:52;14.25;10.50;6.75
75960;PMS7003;64644;48.914;2.254;2023-10-13T09:28:03;12.50;11.25;8.00
75960;PMS7003;64644;48.914;2.254;2023-10-13T09:30:49;11.00;9.50;8.00
75960;PMS7003;64644;48.914;2.254;2023-10-13T09:33:25;10.50;10.00;7.00
75960;PMS7003;64644;48.914;2.254;2023-10-13T09:36:00;10.75;10.00;7.00
75960;PMS7003;64644;48.914;2.254;2023-10-13T09:38:32;9.25;9.25;7.50
75960;PMS7003;64644;48.914;2.254;2023-10-13T09:40:58;12.00;11.50;8.00
75960;PMS7003;64644;48.914;2.254;2023-10-13T09:43:34;12.00;10.75;8.25
75960;PMS7003;64644;48.914;2.254;2023-10-13T09:46:02;11.75;9.75;7.50
75960;PMS7003;64644;48.914;2.254;2023-10-13T09:48:33;12.00;11.00;8.50
75960;PMS7003;64644;48.914;2.254;2023-10-13T09:51:03;12.50;11.00;8.50
75960;PMS7003;64644;48.914;2.254;2023-10-13T09:53:34;11.00;11.00;8.50
75960;PMS7003;64644;48.914;2.254;2023-10-13T09:56:08;10.75;10.00;8.00
75960;PMS7003;64644;48.914;2.254;2023-10-13T09:59:28;11.25;10.75;7.00
75960;PMS7003;64644;48.914;2.254;2023-10-13T10:01:42;10.75;10.75;8.50
75960;PMS7003;64644;48.914;2.254;2023-10-13T10:04:16;11.25;9.50;8.00
75960;PMS7003;64644;48.914;2.254;2023-10-13T10:06:53;12.25;11.25;7.75
75960;PMS7003;64644;48.914;2.254;2023-10-13T10:09:19;13.75;13.00;9.00
75960;PMS7003;64644;48.914;2.254;2023-10-13T10:17:21;13.50;12.00;8.50
75960;PMS7003;64644;48.914;2.254;2023-10-13T10:19:51;15.50;11.25;8.00
75960;PMS7003;64644;48.914;2.254;2023-10-13T10:25:04;14.75;14.75;8.00
75960;PMS7003;64644;48.914;2.254;2023-10-13T10:27:56;12.75;12.00;9.50
75960;PMS7003;64644;48.914;2.254;2023-10-13T10:30:29;13.50;13.25;8.25
75960;PMS7003;64644;48.914;2.254;2023-10-13T10:32:55;10.25;10.25;8.00
75960;PMS7003;64644;48.914;2.254;2023-10-13T10:35:24;10.00;10.00;7.50
75960;PMS7003;64644;48.914;2.254;2023-10-13T10:38:13;13.50;12.00;8.00
75960;PMS7003;64644;48.914;2.254;2023-10-13T10:43:23;7.50;7.50;5.25
75960;PMS7003;64644;48.914;2.254;2023-10-13T10:46:28;10.50;10.25;8.25
75960;PMS7003;64644;48.914;2.254;2023-10-13T10:48:56;10.00;10.00;8.25
75960;PMS7003;64644;48.914;2.254;2023-10-13T10:51:26;12.00;10.00;5.75
75960;PMS7003;64644;48.914;2.254;2023-10-13T10:53:56;12.25;11.00;7.75
75960;PMS7003;64644;48.914;2.254;2023-10-13T10:56:23;13.50;12.00;7.00
75960;PMS7003;64644;48.914;2.254;2023-10-13T10:58:58;5.50;5.50;4.75
75960;PMS7003;64644;48.914;2.254;2023-10-13T11:01:25;12.00;10.00;8.00
75960;PMS7003;64644;48.914;2.254;2023-10-13T11:06:37;10.75;10.50;8.00
75960;PMS7003;64644;48.914;2.254;2023-10-13T11:09:07;7.75;7.75;6.50
75960;PMS7003;64644;48.914;2.254;2023-10-13T11:11:52;12.75;12.75;8.75
75960;PMS7003;64644;48.914;2.254;2023-10-13T11:14:28;12.50;10.50;7.75
75960;PMS7003;64644;48.914;2.254;2023-10-13T11:16:55;10.50;10.50;7.25
75960;PMS7003;64644;48.914;2.254;2023-10-13T11:19:39;11.25;9.75;7.75
75960;PMS7003;64644;48.914;2.254;2023-10-13T11:22:19;11.00;10.00;8.25
75960;PMS7003;64644;48.914;2.254;2023-10-13T11:25:00;12.50;10.50;7.50
75960;PMS7003;64644;48.914;2.254;2023-10-13T11:27:36;11.00;10.50;8.25
75960;PMS7003;64644;48.914;2.254;2023-10-13T11:30:18;10.50;10.50;7.00
75960;PMS7003;64644;48.914;2.254;2023-10-13T11:33:05;10.75;10.75;7.00
75960;PMS7003;64644;48.914;2.254;2023-10-13T11:35:36;11.75;11.50;8.75
75960;PMS7003;64644;48.914;2.254;2023-10-13T11:38:18;15.25;12.50;8.75
75960;PMS7003;64644;48.914;2.254;2023-10-13T11:41:11;12.50;8.75;6.25
75960;PMS7003;64644;48.914;2.254;2023-10-13T11:43:51;10.25;9.25;7.50
75960;PMS7003;64644;48.914;2.254;2023-10-13T11:46:26;12.00;9.25;6.25
75960;PMS7003;64644;48.914;2.254;2023-10-13T11:49:04;9.50;8.50;7.25
75960;PMS7003;64644;48.914;2.254;2023-10-13T11:51:47;11.25;11.25;7.25
75960;PMS7003;64644;48.914;2.254;2023-10-13T11:54:20;9.25;8.75;6.75
75960;PMS7003;64644;48.914;2.254;2023-10-13T11:56:48;11.75;11.75;7.50
75960;PMS7003;64644;48.914;2.254;2023-10-13T11:59:14;12.25;10.50;8.00
75960;PMS7003;64644;48.914;2.254;2023-10-13T12:01:43;10.50;10.50;7.00
75960;PMS7003;64644;48.914;2.254;2023-10-13T12:04:27;12.25;10.25;7.50
75960;PMS7003;64644;48.914;2.254;2023-10-13T12:06:57;12.75;12.00;9.25
75960;PMS7003;64644;48.914;2.254;2023-10-13T12:09:42;11.75;10.00;7.50
75960;PMS7003;64644;48.914;2.254;2023-10-13T12:12:28;11.50;9.00;5.50
75960;PMS7003;64644;48.914;2.254;2023-10-13T12:14:55;10.75;10.75;8.50
75960;PMS7003;64644;48.914;2.254;2023-10-13T12:17:21;9.75;8.75;5.50
75960;PMS7003;64644;48.914;2.254;2023-10-13T12:19:56;12.50;12.00;8.00
75960;PMS7003;64644;48.914;2.254;2023-10-13T12:22:22;10.75;10.75;8.75
75960;PMS7003;64644;48.914;2.254;2023-10-13T12:24:57;10.50;9.25;7.00
75960;PMS7003;64644;48.914;2.254;2023-10-13T12:27:22;8.75;8.75;6.00
75960;PMS7003;64644;48.914;2.254;2023-10-13T12:30:00;8.75;8.00;6.00
75960;PMS7003;64644;48.914;2.254;2023-10-13T12:32:32;14.75;11.75;7.75
75960;PMS7003;64644;48.914;2.254;2023-10-13T12:34:59;12.75;11.00;8.50
75960;PMS7003;64644;48.914;2.254;2023-10-13T12:37:26;11.25;9.75;7.25
75960;PMS7003;64644;48.914;2.254;2023-10-13T12:40:08;12.50;12.50;9.75
75960;PMS7003;64644;48.914;2.254;2023-10-13T12:42:55;9.75;9.00;5.75
75960;PMS7003;64644;48.914;2.254;2023-10-13T12:45:42;12.25;12.25;7.75
75960;PMS7003;64644;48.914;2.254;2023-10-13T12:48:27;11.50;11.50;8.75
75960;PMS7003;64644;48.914;2.254;2023-10-13T12:51:11;8.50;6.75;5.25
75960;PMS7003;64644;48.914;2.254;2023-10-13T12:53:55;15.25;13.75;9.75
75960;PMS7003;64644;48.914;2.254;2023-10-13T12:56:29;13.75;13.00;10.00
75960;PMS7003;64644;48.914;2.254;2023-10-13T12:58:55;11.75;7.75;5.00
75960;PMS7003;64644;48.914;2.254;2023-10-13T13:01:22;12.50;11.00;8.50
75960;PMS7003;64644;48.914;2.254;2023-10-13T13:03:49;5.25;5.25;3.00
75960;PMS7003;64644;48.914;2.254;2023-10-13T13:06:16;12.50;12.50;9.00
75960;PMS7003;64644;48.914;2.254;2023-10-13T13:09:04;9.75;9.50;6.75
75960;PMS7003;64644;48.914;2.254;2023-10-13T13:11:35;10.75;10.75;6.00
75960;PMS7003;64644;48.914;2.254;2023-10-13T13:14:07;11.25;11.25;9.00
75960;PMS7003;64644;48.914;2.254;2023-10-13T13:16:34;9.50;9.50;7.00
75960;PMS7003;64644;48.914;2.254;2023-10-13T13:19:01;5.00;5.00;4.00
75960;PMS7003;64644;48.914;2.254;2023-10-13T13:21:35;12.25;11.25;8.50
75960;PMS7003;64644;48.914;2.254;2023-10-13T13:24:02;9.25;9.25;6.00
75960;PMS7003;64644;48.914;2.254;2023-10-13T13:26:29;10.75;10.25;7.50
75960;PMS7003;64644;48.914;2.254;2023-10-13T13:28:56;11.00;9.25;6.00
75960;PMS7003;64644;48.914;2.254;2023-10-13T13:31:22;8.50;8.50;5.25
75960;PMS7003;64644;48.914;2.254;2023-10-13T13:33:51;11.00;8.50;6.50
75960;PMS7003;64644;48.914;2.254;2023-10-13T13:36:17;10.75;10.50;7.00
75960;PMS7003;64644;48.914;2.254;2023-10-13T13:38:42;12.25;11.00;8.50
75960;PMS7003;64644;48.914;2.254;2023-10-13T13:41:14;12.50;11.00;8.00
75960;PMS7003;64644;48.914;2.254;2023-10-13T13:43:43;9.50;8.50;5.00
75960;PMS7003;64644;48.914;2.254;2023-10-13T13:46:18;12.75;11.00;8.75
75960;PMS7003;64644;48.914;2.254;2023-10-13T13:48:50;11.25;10.75;6.25
75960;PMS7003;64644;48.914;2.254;2023-10-13T13:51:24;11.00;10.50;7.50
75960;PMS7003;64644;48.914;2.254;2023-10-13T13:53:53;10.75;9.00;6.25
75960;PMS7003;64644;48.914;2.254;2023-10-13T13:56:19;11.50;10.25;7.50
75960;PMS7003;64644;48.914;2.254;2023-10-13T13:58:45;10.25;10.00;6.75
75960;PMS7003;64644;48.914;2.254;2023-10-13T14:01:11;13.00;12.50;7.50
75960;PMS7003;64644;48.914;2.254;2023-10-13T14:03:40;14.25;11.00;9.50
75960;PMS7003;64644;48.914;2.254;2023-10-13T14:06:13;13.25;12.00;7.75
75960;PMS7003;64644;48.914;2.254;2023-10-13T14:08:52;10.75;9.75;7.00
75960;PMS7003;64644;48.914;2.254;2023-10-13T14:11:26;12.50;12.00;9.25
75960;PMS7003;64644;48.914;2.254;2023-10-13T14:14:07;11.00;10.00;6.50
75960;PMS7003;64644;48.914;2.254;2023-10-13T14:16:50;12.50;10.75;7.00
75960;PMS7003;64644;48.914;2.254;2023-10-13T14:19:16;10.00;10.00;7.75
75960;PMS7003;64644;48.914;2.254;2023-10-13T14:22:03;9.25;9.00;6.25
75960;PMS7003;64644;48.914;2.254;2023-10-13T14:24:31;9.75;8.25;5.00
75960;PMS7003;64644;48.914;2.254;2023-10-13T14:26:58;10.25;9.25;7.75
75960;PMS7003;64644;48.914;2.254;2023-10-13T14:29:36;11.00;10.25;7.50
75960;PMS7003;64644;48.914;2.254;2023-10-13T14:32:08;13.50;11.75;6.25
75960;PMS7003;64644;48.914;2.254;2023-10-13T14:34:38;13.25;11.50;8.75
75960;PMS7003;64644;48.914;2.254;2023-10-13T14:37:07;16.75;12.75;7.50
75960;PMS7003;64644;48.914;2.254;2023-10-13T14:39:33;12.75;11.50;8.00
75960;PMS7003;64644;48.914;2.254;2023-10-13T14:42:02;15.50;14.25;8.50
75960;PMS7003;64644;48.914;2.254;2023-10-13T14:44:30;11.50;11.50;8.00
75960;PMS7003;64644;48.914;2.254;2023-10-13T14:46:59;11.25;11.25;8.50
75960;PMS7003;64644;48.914;2.254;2023-10-13T14:49:25;13.25;11.25;7.50
75960;PMS7003;64644;48.914;2.254;2023-10-13T14:51:51;16.50;13.00;9.00
75960;PMS7003;64644;48.914;2.254;2023-10-13T14:54:18;14.75;11.00;7.75
75960;PMS7003;64644;48.914;2.254;2023-10-13T14:56:50;7.00;6.75;4.00
75960;PMS7003;64644;48.914;2.254;2023-10-13T14:59:17;10.50;9.50;6.25
75960;PMS7003;64644;48.914;2.254;2023-10-13T15:01:47;14.00;12.00;8.50
75960;PMS7003;64644;48.914;2.254;2023-10-13T15:04:12;15.00;12.75;9.00
75960;PMS7003;64644;48.914;2.254;2023-10-13T15:06:38;16.25;14.25;10.00
75960;PMS7003;64644;48.914;2.254;2023-10-13T15:09:03;11.50;11.50;7.00
75960;PMS7003;64644;48.914;2.254;2023-10-13T15:11:29;12.50;12.00;9.00
75960;PMS7003;64644;48.914;2.254;2023-10-13T15:14:05;13.75;13.75;10.00
75960;PMS7003;64644;48.914;2.254;2023-10-13T15:16:33;14.00;11.75;7.50